No requiere especial atencion con respecto al clima.   -   No hay Alarmas

Nearby METAR Reports

 

LELL - Sabadell, Spain
Distance from station: E 19km
Actualización: 18/06/2021 13:30
Despejado
Despejado
 Viento del SE
Viento: SE 19 km/h
Temperatura: 34°C
Heat Index: 38°C
Rocío: 22°C
Humedad: 49%
Barómetro: 1014 hPa
Resumen: Despejado
Visibility: greater than 10 km
2021/06/18 11:30 LELL 181130Z 13010KT 080V170 CAVOK 34/22 Q1014
LEBL - Barcelona Airpor, Spain
Distance from station: SSE 30km
Actualización: 18/06/2021 13:30
Few Clouds
Few Clouds
 Viento del S
Viento: S 13 km/h
Temperatura: 25°C
Rocío: 20°C
Humedad: 74%
Barómetro: 1014 hPa
Clouds: Few Clouds
Visibility: 10 km
Cloud details: Few Clouds 914 m
2021/06/18 11:30 LEBL 181130Z 17007KT 130V210 9999 FEW030 25/20 Q1014 NOSIG
 
LERS - Reus (civ/Mil), Spain
Distance from station: SO 71km
Actualización: 18/06/2021 13:30
Few Clouds
Few Clouds
 Viento del SE
Viento: SE 9 km/h
Temperatura: 27°C
Heat Index: 29°C
Rocío: 20°C
Humedad: 66%
Barómetro: 1014 hPa
Clouds: Few Clouds
Visibility: 10 km
Cloud details: Few Clouds 914 m
2021/06/18 11:30 LERS 181130Z 13005KT 060V200 9999 FEW030 27/20 Q1014
LEGE - Gerona/Costa Bra, Spain
Distance from station: ENE 86km
Actualización: 18/06/2021 13:30
Few Clouds
Few Clouds
 Viento del S
Viento: S 19 km/h
Temperatura: 29°C
Heat Index: 29°C
Rocío: 17°C
Humedad: 48%
Barómetro: 1014 hPa
Clouds: Few Clouds
Visibility: 10 km
Cloud details: Few Clouds 914 m
2021/06/18 11:30 LEGE 181130Z 18010KT 150V240 9999 FEW030 29/17 Q1014
 
LESU - Pirineus/La Seu, Spain
Distance from station: NNO 101km
Actualización: 18/06/2021 13:30
Few Clouds
Few Clouds
 Viento del varies
Viento: varies 6 km/h
Temperatura: 22°C
Rocío: 12°C
Humedad: 53%
Barómetro: 1018 hPa
Clouds: Few Clouds
Visibility: 10 km
Cloud details: Few Clouds 914 m
Few Clouds 1829 m
2021/06/18 11:30 LESU 181130Z VRB03KT 9999 FEW030 FEW060 22/12 Q1018
LEDA - Lleida/Alguaire, Spain
Distance from station: ONO 114km
Actualización: 18/06/2021 13:30
Few Clouds
Few Clouds
 Viento del ENE
Viento: ENE 7 km/h
Temperatura: 27°C
Heat Index: 27°C
Rocío: 13°C
Humedad: 42%
Barómetro: 1015 hPa
Clouds: Few Clouds
Visibility: 10 km
Cloud details: Few Clouds 762 m
2021/06/18 11:30 LEDA 181130Z 06004KT 020V150 9999 FEW025 27/13 Q1015